sensor_id;sensor_type;location;lat;lon;timestamp;P1;durP1;ratioP1;P2;durP2;ratioP2
45730;SDS011;31440;48.584;13.460;2022-09-28T00:01:49;0.57;;;0.57;;
45730;SDS011;31440;48.584;13.460;2022-09-28T00:04:15;0.75;;;0.68;;
45730;SDS011;31440;48.584;13.460;2022-09-28T00:06:41;0.80;;;0.80;;
45730;SDS011;31440;48.584;13.460;2022-09-28T00:09:07;2.90;;;0.70;;
45730;SDS011;31440;48.584;13.460;2022-09-28T00:11:32;1.27;;;0.77;;
45730;SDS011;31440;48.584;13.460;2022-09-28T00:13:59;1.10;;;0.57;;
45730;SDS011;31440;48.584;13.460;2022-09-28T00:16:31;0.82;;;0.70;;
45730;SDS011;31440;48.584;13.460;2022-09-28T00:18:58;0.73;;;0.70;;
45730;SDS011;31440;48.584;13.460;2022-09-28T00:21:26;0.60;;;0.60;;
45730;SDS011;31440;48.584;13.460;2022-09-28T00:23:54;0.50;;;0.50;;
45730;SDS011;31440;48.584;13.460;2022-09-28T00:26:40;3.53;;;0.60;;
45730;SDS011;31440;48.584;13.460;2022-09-28T00:29:29;1.52;;;1.10;;
45730;SDS011;31440;48.584;13.460;2022-09-28T00:31:57;2.25;;;0.70;;
45730;SDS011;31440;48.584;13.460;2022-09-28T00:34:26;2.05;;;0.60;;
45730;SDS011;31440;48.584;13.460;2022-09-28T00:36:55;0.55;;;0.50;;
45730;SDS011;31440;48.584;13.460;2022-09-28T00:39:21;0.68;;;0.60;;
45730;SDS011;31440;48.584;13.460;2022-09-28T00:41:47;0.77;;;0.75;;
45730;SDS011;31440;48.584;13.460;2022-09-28T00:46:52;2.40;;;0.80;;
45730;SDS011;31440;48.584;13.460;2022-09-28T00:49:47;0.55;;;0.55;;
45730;SDS011;31440;48.584;13.460;2022-09-28T00:52:30;0.93;;;0.50;;
45730;SDS011;31440;48.584;13.460;2022-09-28T00:55:01;0.60;;;0.60;;
45730;SDS011;31440;48.584;13.460;2022-09-28T00:57:29;0.88;;;0.68;;
45730;SDS011;31440;48.584;13.460;2022-09-28T00:59:55;1.30;;;0.75;;
45730;SDS011;31440;48.584;13.460;2022-09-28T01:02:21;3.90;;;0.80;;
45730;SDS011;31440;48.584;13.460;2022-09-28T01:04:46;0.60;;;0.60;;
45730;SDS011;31440;48.584;13.460;2022-09-28T01:07:13;1.33;;;0.98;;
45730;SDS011;31440;48.584;13.460;2022-09-28T01:09:41;0.73;;;0.70;;
45730;SDS011;31440;48.584;13.460;2022-09-28T01:12:10;0.60;;;0.60;;
45730;SDS011;31440;48.584;13.460;2022-09-28T01:14:36;3.70;;;0.70;;
45730;SDS011;31440;48.584;13.460;2022-09-28T01:17:06;0.60;;;0.60;;
45730;SDS011;31440;48.584;13.460;2022-09-28T01:25:06;0.90;;;0.55;;
45730;SDS011;31440;48.584;13.460;2022-09-28T01:27:49;0.57;;;0.55;;
45730;SDS011;31440;48.584;13.460;2022-09-28T01:30:19;2.38;;;0.70;;
45730;SDS011;31440;48.584;13.460;2022-09-28T01:32:57;1.25;;;0.80;;
45730;SDS011;31440;48.584;13.460;2022-09-28T01:35:34;1.00;;;0.85;;
45730;SDS011;31440;48.584;13.460;2022-09-28T01:40:35;0.55;;;0.55;;
45730;SDS011;31440;48.584;13.460;2022-09-28T01:43:05;2.60;;;1.00;;
45730;SDS011;31440;48.584;13.460;2022-09-28T01:45:37;1.20;;;0.90;;
45730;SDS011;31440;48.584;13.460;2022-09-28T01:48:07;2.38;;;0.82;;
45730;SDS011;31440;48.584;13.460;2022-09-28T01:50:36;1.80;;;0.73;;
45730;SDS011;31440;48.584;13.460;2022-09-28T01:53:08;4.70;;;0.77;;
45730;SDS011;31440;48.584;13.460;2022-09-28T01:55:41;1.42;;;0.55;;
45730;SDS011;31440;48.584;13.460;2022-09-28T01:58:11;0.70;;;0.70;;
45730;SDS011;31440;48.584;13.460;2022-09-28T02:00:43;0.70;;;0.70;;
45730;SDS011;31440;48.584;13.460;2022-09-28T02:03:27;1.33;;;1.17;;
45730;SDS011;31440;48.584;13.460;2022-09-28T02:06:02;0.82;;;0.82;;
45730;SDS011;31440;48.584;13.460;2022-09-28T02:08:36;0.80;;;0.80;;
45730;SDS011;31440;48.584;13.460;2022-09-28T02:11:12;1.02;;;0.80;;
45730;SDS011;31440;48.584;13.460;2022-09-28T02:13:40;0.70;;;0.70;;
45730;SDS011;31440;48.584;13.460;2022-09-28T02:19:05;0.82;;;0.82;;
45730;SDS011;31440;48.584;13.460;2022-09-28T02:24:13;0.60;;;0.60;;
45730;SDS011;31440;48.584;13.460;2022-09-28T02:26:41;0.85;;;0.80;;
45730;SDS011;31440;48.584;13.460;2022-09-28T02:29:10;0.75;;;0.75;;
45730;SDS011;31440;48.584;13.460;2022-09-28T02:31:36;0.70;;;0.70;;
45730;SDS011;31440;48.584;13.460;2022-09-28T02:34:01;1.02;;;0.90;;
45730;SDS011;31440;48.584;13.460;2022-09-28T02:36:27;3.30;;;0.93;;
45730;SDS011;31440;48.584;13.460;2022-09-28T02:38:54;4.13;;;1.10;;
45730;SDS011;31440;48.584;13.460;2022-09-28T02:44:13;1.40;;;0.68;;
45730;SDS011;31440;48.584;13.460;2022-09-28T02:55:53;1.70;;;0.90;;
45730;SDS011;31440;48.584;13.460;2022-09-28T03:00:44;2.47;;;1.23;;
45730;SDS011;31440;48.584;13.460;2022-09-28T03:03:30;2.83;;;1.50;;
45730;SDS011;31440;48.584;13.460;2022-09-28T03:06:10;2.72;;;1.17;;
45730;SDS011;31440;48.584;13.460;2022-09-28T03:08:59;1.20;;;1.10;;
45730;SDS011;31440;48.584;13.460;2022-09-28T03:11:34;2.67;;;0.98;;
45730;SDS011;31440;48.584;13.460;2022-09-28T03:16:42;0.93;;;0.93;;
45730;SDS011;31440;48.584;13.460;2022-09-28T03:19:12;2.10;;;1.05;;
45730;SDS011;31440;48.584;13.460;2022-09-28T03:21:38;1.75;;;1.30;;
45730;SDS011;31440;48.584;13.460;2022-09-28T03:24:04;2.78;;;1.15;;
45730;SDS011;31440;48.584;13.460;2022-09-28T03:26:31;2.13;;;1.30;;
45730;SDS011;31440;48.584;13.460;2022-09-28T03:28:57;2.38;;;1.25;;
45730;SDS011;31440;48.584;13.460;2022-09-28T03:31:24;1.85;;;1.10;;
45730;SDS011;31440;48.584;13.460;2022-09-28T03:33:50;1.63;;;1.30;;
45730;SDS011;31440;48.584;13.460;2022-09-28T03:36:17;2.13;;;1.77;;
45730;SDS011;31440;48.584;13.460;2022-09-28T03:38:42;3.63;;;2.17;;
45730;SDS011;31440;48.584;13.460;2022-09-28T03:41:09;2.60;;;2.40;;
45730;SDS011;31440;48.584;13.460;2022-09-28T03:43:38;3.05;;;2.67;;
45730;SDS011;31440;48.584;13.460;2022-09-28T03:46:04;2.00;;;1.80;;
45730;SDS011;31440;48.584;13.460;2022-09-28T03:48:35;4.38;;;2.13;;
45730;SDS011;31440;48.584;13.460;2022-09-28T03:51:02;2.40;;;2.20;;
45730;SDS011;31440;48.584;13.460;2022-09-28T03:53:31;2.53;;;2.10;;
45730;SDS011;31440;48.584;13.460;2022-09-28T03:56:13;2.67;;;1.88;;
45730;SDS011;31440;48.584;13.460;2022-09-28T03:58:40;4.85;;;2.20;;
45730;SDS011;31440;48.584;13.460;2022-09-28T04:01:08;4.10;;;2.03;;
45730;SDS011;31440;48.584;13.460;2022-09-28T04:03:39;3.95;;;2.30;;
45730;SDS011;31440;48.584;13.460;2022-09-28T04:06:04;2.47;;;1.70;;
45730;SDS011;31440;48.584;13.460;2022-09-28T04:08:30;2.00;;;1.80;;
45730;SDS011;31440;48.584;13.460;2022-09-28T04:10:57;1.73;;;1.55;;
45730;SDS011;31440;48.584;13.460;2022-09-28T04:13:26;1.85;;;1.65;;
45730;SDS011;31440;48.584;13.460;2022-09-28T04:15:54;4.47;;;2.15;;
45730;SDS011;31440;48.584;13.460;2022-09-28T04:18:20;6.22;;;1.92;;
45730;SDS011;31440;48.584;13.460;2022-09-28T04:21:06;4.72;;;1.50;;
45730;SDS011;31440;48.584;13.460;2022-09-28T04:23:46;1.85;;;1.75;;
45730;SDS011;31440;48.584;13.460;2022-09-28T04:26:21;2.53;;;1.40;;
45730;SDS011;31440;48.584;13.460;2022-09-28T04:28:48;2.33;;;1.20;;
45730;SDS011;31440;48.584;13.460;2022-09-28T04:31:37;2.38;;;1.58;;
45730;SDS011;31440;48.584;13.460;2022-09-28T04:34:08;5.20;;;1.58;;
45730;SDS011;31440;48.584;13.460;2022-09-28T04:36:34;1.50;;;1.40;;
45730;SDS011;31440;48.584;13.460;2022-09-28T04:38:59;1.65;;;1.30;;
45730;SDS011;31440;48.584;13.460;2022-09-28T04:41:27;2.33;;;1.55;;
45730;SDS011;31440;48.584;13.460;2022-09-28T04:43:52;1.75;;;1.40;;
45730;SDS011;31440;48.584;13.460;2022-09-28T04:46:18;1.85;;;1.35;;
45730;SDS011;31440;48.584;13.460;2022-09-28T04:48:55;3.45;;;1.50;;
45730;SDS011;31440;48.584;13.460;2022-09-28T04:51:39;1.55;;;1.38;;
45730;SDS011;31440;48.584;13.460;2022-09-28T04:54:04;1.58;;;1.48;;
45730;SDS011;31440;48.584;13.460;2022-09-28T04:56:30;1.48;;;1.35;;
45730;SDS011;31440;48.584;13.460;2022-09-28T04:58:55;2.20;;;1.73;;
45730;SDS011;31440;48.584;13.460;2022-09-28T05:01:21;2.05;;;1.40;;
45730;SDS011;31440;48.584;13.460;2022-09-28T05:04:11;1.58;;;1.48;;
45730;SDS011;31440;48.584;13.460;2022-09-28T05:07:00;2.08;;;1.73;;
45730;SDS011;31440;48.584;13.460;2022-09-28T05:09:26;1.95;;;1.40;;
45730;SDS011;31440;48.584;13.460;2022-09-28T05:11:52;4.00;;;1.95;;
45730;SDS011;31440;48.584;13.460;2022-09-28T05:14:20;2.72;;;1.52;;
45730;SDS011;31440;48.584;13.460;2022-09-28T05:16:49;2.17;;;1.77;;
45730;SDS011;31440;48.584;13.460;2022-09-28T05:19:20;3.97;;;2.57;;
45730;SDS011;31440;48.584;13.460;2022-09-28T05:21:47;2.42;;;2.22;;
45730;SDS011;31440;48.584;13.460;2022-09-28T05:24:13;2.53;;;1.85;;
45730;SDS011;31440;48.584;13.460;2022-09-28T05:26:40;3.83;;;2.00;;
45730;SDS011;31440;48.584;13.460;2022-09-28T05:29:07;2.33;;;2.13;;
45730;SDS011;31440;48.584;13.460;2022-09-28T05:31:33;6.28;;;1.90;;
45730;SDS011;31440;48.584;13.460;2022-09-28T05:34:16;3.83;;;2.17;;
45730;SDS011;31440;48.584;13.460;2022-09-28T05:36:43;4.82;;;1.90;;
45730;SDS011;31440;48.584;13.460;2022-09-28T05:39:10;2.13;;;1.92;;
45730;SDS011;31440;48.584;13.460;2022-09-28T05:41:36;5.18;;;1.90;;
45730;SDS011;31440;48.584;13.460;2022-09-28T05:44:01;2.67;;;1.88;;
45730;SDS011;31440;48.584;13.460;2022-09-28T05:46:28;1.88;;;1.60;;
45730;SDS011;31440;48.584;13.460;2022-09-28T05:48:57;4.25;;;2.00;;
45730;SDS011;31440;48.584;13.460;2022-09-28T05:51:24;1.70;;;1.60;;
45730;SDS011;31440;48.584;13.460;2022-09-28T05:53:49;2.00;;;1.70;;
45730;SDS011;31440;48.584;13.460;2022-09-28T05:56:19;4.40;;;2.35;;
45730;SDS011;31440;48.584;13.460;2022-09-28T05:58:46;2.55;;;2.30;;
45730;SDS011;31440;48.584;13.460;2022-09-28T06:01:12;2.70;;;2.40;;
45730;SDS011;31440;48.584;13.460;2022-09-28T06:03:38;2.72;;;2.20;;
45730;SDS011;31440;48.584;13.460;2022-09-28T06:06:03;2.22;;;2.03;;
45730;SDS011;31440;48.584;13.460;2022-09-28T06:08:30;2.42;;;2.20;;
45730;SDS011;31440;48.584;13.460;2022-09-28T06:11:11;3.38;;;2.00;;
45730;SDS011;31440;48.584;13.460;2022-09-28T06:13:37;2.40;;;1.70;;
45730;SDS011;31440;48.584;13.460;2022-09-28T06:16:05;1.50;;;1.40;;
45730;SDS011;31440;48.584;13.460;2022-09-28T06:18:32;5.30;;;2.00;;
45730;SDS011;31440;48.584;13.460;2022-09-28T06:21:19;8.25;;;2.10;;
45730;SDS011;31440;48.584;13.460;2022-09-28T06:23:45;2.97;;;1.73;;
45730;SDS011;31440;48.584;13.460;2022-09-28T06:26:11;2.83;;;1.77;;
45730;SDS011;31440;48.584;13.460;2022-09-28T06:28:37;1.58;;;1.48;;
45730;SDS011;31440;48.584;13.460;2022-09-28T06:31:04;3.78;;;2.15;;
45730;SDS011;31440;48.584;13.460;2022-09-28T06:33:29;2.45;;;1.85;;
45730;SDS011;31440;48.584;13.460;2022-09-28T06:35:57;2.90;;;1.90;;
45730;SDS011;31440;48.584;13.460;2022-09-28T06:38:23;4.25;;;1.80;;
45730;SDS011;31440;48.584;13.460;2022-09-28T06:40:49;3.92;;;1.88;;
45730;SDS011;31440;48.584;13.460;2022-09-28T06:43:14;1.67;;;1.58;;
45730;SDS011;31440;48.584;13.460;2022-09-28T06:45:59;1.52;;;1.42;;
45730;SDS011;31440;48.584;13.460;2022-09-28T06:48:44;1.85;;;1.58;;
45730;SDS011;31440;48.584;13.460;2022-09-28T06:51:18;3.38;;;1.80;;
45730;SDS011;31440;48.584;13.460;2022-09-28T06:53:59;1.77;;;1.52;;
45730;SDS011;31440;48.584;13.460;2022-09-28T06:56:51;1.80;;;1.70;;
45730;SDS011;31440;48.584;13.460;2022-09-28T06:59:18;2.40;;;1.58;;
45730;SDS011;31440;48.584;13.460;2022-09-28T07:01:44;2.33;;;1.50;;
45730;SDS011;31440;48.584;13.460;2022-09-28T07:04:30;1.88;;;1.67;;
45730;SDS011;31440;48.584;13.460;2022-09-28T07:07:25;4.72;;;1.67;;
45730;SDS011;31440;48.584;13.460;2022-09-28T07:10:10;2.33;;;1.60;;
45730;SDS011;31440;48.584;13.460;2022-09-28T07:12:42;1.60;;;1.50;;
45730;SDS011;31440;48.584;13.460;2022-09-28T07:15:32;1.48;;;1.38;;
45730;SDS011;31440;48.584;13.460;2022-09-28T07:17:59;2.72;;;1.60;;
45730;SDS011;31440;48.584;13.460;2022-09-28T07:20:25;4.85;;;1.60;;
45730;SDS011;31440;48.584;13.460;2022-09-28T07:22:52;4.53;;;1.80;;
45730;SDS011;31440;48.584;13.460;2022-09-28T07:25:22;2.15;;;1.85;;
45730;SDS011;31440;48.584;13.460;2022-09-28T07:28:07;2.72;;;1.50;;
45730;SDS011;31440;48.584;13.460;2022-09-28T07:30:56;5.63;;;1.90;;
45730;SDS011;31440;48.584;13.460;2022-09-28T07:33:51;1.90;;;1.67;;
45730;SDS011;31440;48.584;13.460;2022-09-28T07:36:41;3.85;;;1.90;;
45730;SDS011;31440;48.584;13.460;2022-09-28T07:39:06;1.45;;;1.35;;
45730;SDS011;31440;48.584;13.460;2022-09-28T07:41:32;2.17;;;1.55;;
45730;SDS011;31440;48.584;13.460;2022-09-28T07:43:59;1.60;;;1.40;;
45730;SDS011;31440;48.584;13.460;2022-09-28T07:46:37;3.33;;;1.85;;
45730;SDS011;31440;48.584;13.460;2022-09-28T07:49:21;2.22;;;2.03;;
45730;SDS011;31440;48.584;13.460;2022-09-28T07:52:12;2.07;;;1.83;;
45730;SDS011;31440;48.584;13.460;2022-09-28T07:54:56;2.13;;;1.70;;
45730;SDS011;31440;48.584;13.460;2022-09-28T07:57:55;2.20;;;1.98;;
45730;SDS011;31440;48.584;13.460;2022-09-28T08:00:38;3.50;;;1.67;;
45730;SDS011;31440;48.584;13.460;2022-09-28T08:03:04;1.90;;;1.48;;
45730;SDS011;31440;48.584;13.460;2022-09-28T08:05:31;1.90;;;1.73;;
45730;SDS011;31440;48.584;13.460;2022-09-28T08:08:00;1.63;;;1.52;;
45730;SDS011;31440;48.584;13.460;2022-09-28T08:10:27;1.55;;;1.20;;
45730;SDS011;31440;48.584;13.460;2022-09-28T08:13:14;2.83;;;1.90;;
45730;SDS011;31440;48.584;13.460;2022-09-28T08:15:53;1.67;;;1.50;;
45730;SDS011;31440;48.584;13.460;2022-09-28T08:18:37;2.15;;;1.95;;
45730;SDS011;31440;48.584;13.460;2022-09-28T08:21:03;1.63;;;1.40;;
45730;SDS011;31440;48.584;13.460;2022-09-28T08:23:48;4.78;;;2.05;;
45730;SDS011;31440;48.584;13.460;2022-09-28T08:26:14;3.33;;;1.67;;
45730;SDS011;31440;48.584;13.460;2022-09-28T08:28:41;3.10;;;1.55;;
45730;SDS011;31440;48.584;13.460;2022-09-28T08:31:36;2.92;;;2.08;;
45730;SDS011;31440;48.584;13.460;2022-09-28T08:34:10;2.25;;;1.73;;
45730;SDS011;31440;48.584;13.460;2022-09-28T08:36:57;1.88;;;1.67;;
45730;SDS011;31440;48.584;13.460;2022-09-28T08:39:41;3.65;;;2.00;;
45730;SDS011;31440;48.584;13.460;2022-09-28T08:42:29;2.97;;;1.52;;
45730;SDS011;31440;48.584;13.460;2022-09-28T08:48:18;2.38;;;1.70;;
45730;SDS011;31440;48.584;13.460;2022-09-28T08:51:34;2.28;;;2.08;;
45730;SDS011;31440;48.584;13.460;2022-09-28T08:57:41;19.13;;;10.30;;
45730;SDS011;31440;48.584;13.460;2022-09-28T09:00:18;12.88;;;9.00;;
45730;SDS011;31440;48.584;13.460;2022-09-28T09:02:45;11.30;;;6.68;;
45730;SDS011;31440;48.584;13.460;2022-09-28T09:05:16;3.40;;;2.90;;
45730;SDS011;31440;48.584;13.460;2022-09-28T09:22:35;3.25;;;2.20;;
45730;SDS011;31440;48.584;13.460;2022-09-28T09:25:19;3.03;;;1.98;;
45730;SDS011;31440;48.584;13.460;2022-09-28T09:30:29;4.28;;;1.95;;
45730;SDS011;31440;48.584;13.460;2022-09-28T09:36:57;2.75;;;2.55;;
45730;SDS011;31440;48.584;13.460;2022-09-28T09:43:53;2.47;;;2.25;;
45730;SDS011;31440;48.584;13.460;2022-09-28T09:46:48;2.67;;;1.75;;
45730;SDS011;31440;48.584;13.460;2022-09-28T09:49:25;3.58;;;3.15;;
45730;SDS011;31440;48.584;13.460;2022-09-28T09:51:59;3.67;;;2.20;;
45730;SDS011;31440;48.584;13.460;2022-09-28T09:58:06;2.53;;;2.10;;
45730;SDS011;31440;48.584;13.460;2022-09-28T10:00:46;2.50;;;2.30;;
45730;SDS011;31440;48.584;13.460;2022-09-28T10:03:28;3.03;;;2.72;;
45730;SDS011;31440;48.584;13.460;2022-09-28T10:06:15;2.20;;;1.98;;
45730;SDS011;31440;48.584;13.460;2022-09-28T10:08:49;3.13;;;2.25;;
45730;SDS011;31440;48.584;13.460;2022-09-28T10:11:27;2.15;;;2.00;;
45730;SDS011;31440;48.584;13.460;2022-09-28T10:16:40;1.70;;;1.60;;
45730;SDS011;31440;48.584;13.460;2022-09-28T10:19:13;1.60;;;1.50;;
45730;SDS011;31440;48.584;13.460;2022-09-28T10:22:08;1.83;;;1.40;;
45730;SDS011;31440;48.584;13.460;2022-09-28T10:24:43;2.00;;;1.80;;
45730;SDS011;31440;48.584;13.460;2022-09-28T10:27:12;1.25;;;1.13;;
45730;SDS011;31440;48.584;13.460;2022-09-28T10:30:02;2.45;;;2.25;;
45730;SDS011;31440;48.584;13.460;2022-09-28T10:32:37;6.10;;;3.97;;
45730;SDS011;31440;48.584;13.460;2022-09-28T10:37:56;1.50;;;1.40;;
45730;SDS011;31440;48.584;13.460;2022-09-28T10:40:50;2.38;;;2.10;;
45730;SDS011;31440;48.584;13.460;2022-09-28T10:43:52;3.40;;;1.77;;
45730;SDS011;31440;48.584;13.460;2022-09-28T10:46:37;1.73;;;1.63;;
45730;SDS011;31440;48.584;13.460;2022-09-28T10:51:43;1.85;;;1.40;;
45730;SDS011;31440;48.584;13.460;2022-09-28T10:54:22;1.38;;;1.27;;
45730;SDS011;31440;48.584;13.460;2022-09-28T11:02:12;1.40;;;1.30;;
45730;SDS011;31440;48.584;13.460;2022-09-28T11:05:04;1.60;;;1.10;;
45730;SDS011;31440;48.584;13.460;2022-09-28T11:07:46;1.90;;;1.40;;
45730;SDS011;31440;48.584;13.460;2022-09-28T11:10:20;3.00;;;1.10;;
45730;SDS011;31440;48.584;13.460;2022-09-28T11:12:51;2.15;;;1.40;;
45730;SDS011;31440;48.584;13.460;2022-09-28T11:15:20;1.60;;;1.45;;
45730;SDS011;31440;48.584;13.460;2022-09-28T11:17:51;7.32;;;1.73;;
45730;SDS011;31440;48.584;13.460;2022-09-28T11:22:51;1.65;;;1.48;;
45730;SDS011;31440;48.584;13.460;2022-09-28T11:25:20;2.25;;;1.52;;
45730;SDS011;31440;48.584;13.460;2022-09-28T11:33:29;1.48;;;1.38;;
45730;SDS011;31440;48.584;13.460;2022-09-28T11:36:24;1.85;;;1.67;;
45730;SDS011;31440;48.584;13.460;2022-09-28T11:44:35;2.63;;;1.60;;
45730;SDS011;31440;48.584;13.460;2022-09-28T11:52:24;2.17;;;1.77;;
45730;SDS011;31440;48.584;13.460;2022-09-28T11:57:59;1.85;;;1.63;;
45730;SDS011;31440;48.584;13.460;2022-09-28T12:00:29;1.48;;;1.27;;
45730;SDS011;31440;48.584;13.460;2022-09-28T12:03:05;1.10;;;1.00;;
45730;SDS011;31440;48.584;13.460;2022-09-28T12:05:39;0.80;;;0.60;;
45730;SDS011;31440;48.584;13.460;2022-09-28T12:08:12;1.08;;;0.65;;
45730;SDS011;31440;48.584;13.460;2022-09-28T12:11:30;0.70;;;0.70;;
45730;SDS011;31440;48.584;13.460;2022-09-28T12:14:19;0.73;;;0.70;;
45730;SDS011;31440;48.584;13.460;2022-09-28T12:20:20;1.27;;;0.85;;
45730;SDS011;31440;48.584;13.460;2022-09-28T12:25:27;2.17;;;0.80;;
45730;SDS011;31440;48.584;13.460;2022-09-28T12:30:32;0.88;;;0.60;;
45730;SDS011;31440;48.584;13.460;2022-09-28T12:33:05;1.88;;;0.70;;
45730;SDS011;31440;48.584;13.460;2022-09-28T12:40:55;0.98;;;0.80;;
45730;SDS011;31440;48.584;13.460;2022-09-28T12:51:40;0.60;;;0.55;;
45730;SDS011;31440;48.584;13.460;2022-09-28T12:54:17;0.73;;;0.73;;
45730;SDS011;31440;48.584;13.460;2022-09-28T12:57:10;0.70;;;0.70;;
45730;SDS011;31440;48.584;13.460;2022-09-28T13:05:38;1.17;;;0.65;;
45730;SDS011;31440;48.584;13.460;2022-09-28T13:11:00;1.00;;;0.70;;
45730;SDS011;31440;48.584;13.460;2022-09-28T13:19:13;1.75;;;1.23;;
45730;SDS011;31440;48.584;13.460;2022-09-28T13:24:21;1.95;;;1.33;;
45730;SDS011;31440;48.584;13.460;2022-09-28T13:26:52;0.82;;;0.82;;
45730;SDS011;31440;48.584;13.460;2022-09-28T13:29:21;0.60;;;0.60;;
45730;SDS011;31440;48.584;13.460;2022-09-28T13:31:48;0.95;;;0.70;;
45730;SDS011;31440;48.584;13.460;2022-09-28T13:34:17;1.83;;;1.10;;
45730;SDS011;31440;48.584;13.460;2022-09-28T13:37:08;2.78;;;1.45;;
45730;SDS011;31440;48.584;13.460;2022-09-28T13:42:35;1.00;;;0.90;;
45730;SDS011;31440;48.584;13.460;2022-09-28T13:50:26;1.15;;;1.05;;
45730;SDS011;31440;48.584;13.460;2022-09-28T13:58:35;2.55;;;1.10;;
45730;SDS011;31440;48.584;13.460;2022-09-28T14:01:09;2.97;;;1.40;;
45730;SDS011;31440;48.584;13.460;2022-09-28T14:06:19;0.88;;;0.85;;
45730;SDS011;31440;48.584;13.460;2022-09-28T14:09:06;2.15;;;1.42;;
45730;SDS011;31440;48.584;13.460;2022-09-28T14:11:41;1.23;;;0.80;;
45730;SDS011;31440;48.584;13.460;2022-09-28T14:16:38;1.10;;;0.90;;
45730;SDS011;31440;48.584;13.460;2022-09-28T14:29:36;1.92;;;0.95;;
45730;SDS011;31440;48.584;13.460;2022-09-28T14:37:02;1.17;;;0.80;;
45730;SDS011;31440;48.584;13.460;2022-09-28T14:43:18;1.35;;;1.00;;
45730;SDS011;31440;48.584;13.460;2022-09-28T15:01:46;3.10;;;1.40;;
45730;SDS011;31440;48.584;13.460;2022-09-28T15:04:18;2.45;;;1.05;;
45730;SDS011;31440;48.584;13.460;2022-09-28T15:06:45;4.07;;;1.30;;
45730;SDS011;31440;48.584;13.460;2022-09-28T15:14:44;1.13;;;0.80;;
45730;SDS011;31440;48.584;13.460;2022-09-28T15:17:22;1.92;;;1.00;;
45730;SDS011;31440;48.584;13.460;2022-09-28T15:19:52;2.17;;;1.00;;
45730;SDS011;31440;48.584;13.460;2022-09-28T15:22:27;0.60;;;0.60;;
45730;SDS011;31440;48.584;13.460;2022-09-28T15:25:00;1.38;;;0.95;;
45730;SDS011;31440;48.584;13.460;2022-09-28T15:27:35;1.40;;;1.27;;
45730;SDS011;31440;48.584;13.460;2022-09-28T15:30:16;2.25;;;0.90;;
45730;SDS011;31440;48.584;13.460;2022-09-28T15:33:02;0.70;;;0.70;;
45730;SDS011;31440;48.584;13.460;2022-09-28T15:35:48;1.17;;;0.80;;
45730;SDS011;31440;48.584;13.460;2022-09-28T15:38:21;2.78;;;0.93;;
45730;SDS011;31440;48.584;13.460;2022-09-28T15:40:47;1.35;;;0.90;;
45730;SDS011;31440;48.584;13.460;2022-09-28T15:43:20;1.55;;;1.13;;
45730;SDS011;31440;48.584;13.460;2022-09-28T15:45:58;1.42;;;0.88;;
45730;SDS011;31440;48.584;13.460;2022-09-28T15:51:18;1.80;;;1.00;;
45730;SDS011;31440;48.584;13.460;2022-09-28T15:53:46;1.65;;;1.42;;
45730;SDS011;31440;48.584;13.460;2022-09-28T15:56:25;2.08;;;1.10;;
45730;SDS011;31440;48.584;13.460;2022-09-28T15:59:09;0.90;;;0.80;;
45730;SDS011;31440;48.584;13.460;2022-09-28T16:01:42;3.65;;;1.17;;
45730;SDS011;31440;48.584;13.460;2022-09-28T16:04:31;1.95;;;1.02;;
45730;SDS011;31440;48.584;13.460;2022-09-28T16:09:57;1.35;;;1.25;;
45730;SDS011;31440;48.584;13.460;2022-09-28T16:12:25;1.65;;;1.55;;
45730;SDS011;31440;48.584;13.460;2022-09-28T16:17:49;3.08;;;1.02;;
45730;SDS011;31440;48.584;13.460;2022-09-28T16:25:46;1.50;;;1.10;;
45730;SDS011;31440;48.584;13.460;2022-09-28T16:28:44;1.55;;;1.45;;
45730;SDS011;31440;48.584;13.460;2022-09-28T16:33:49;2.38;;;1.15;;
45730;SDS011;31440;48.584;13.460;2022-09-28T16:36:18;2.88;;;1.40;;
45730;SDS011;31440;48.584;13.460;2022-09-28T16:38:46;1.40;;;1.00;;
45730;SDS011;31440;48.584;13.460;2022-09-28T16:41:13;2.03;;;0.95;;
45730;SDS011;31440;48.584;13.460;2022-09-28T16:43:43;2.60;;;1.73;;
45730;SDS011;31440;48.584;13.460;2022-09-28T16:46:11;2.85;;;1.30;;
45730;SDS011;31440;48.584;13.460;2022-09-28T16:48:45;4.68;;;1.10;;
45730;SDS011;31440;48.584;13.460;2022-09-28T16:51:19;2.05;;;1.30;;
45730;SDS011;31440;48.584;13.460;2022-09-28T16:53:46;1.40;;;1.00;;
45730;SDS011;31440;48.584;13.460;2022-09-28T16:56:30;2.85;;;1.55;;
45730;SDS011;31440;48.584;13.460;2022-09-28T16:58:58;3.22;;;1.50;;
45730;SDS011;31440;48.584;13.460;2022-09-28T17:01:23;1.20;;;1.10;;
45730;SDS011;31440;48.584;13.460;2022-09-28T17:03:49;4.03;;;1.50;;
45730;SDS011;31440;48.584;13.460;2022-09-28T17:06:16;2.33;;;1.67;;
45730;SDS011;31440;48.584;13.460;2022-09-28T17:08:43;2.25;;;1.80;;
45730;SDS011;31440;48.584;13.460;2022-09-28T17:11:11;2.08;;;1.67;;
45730;SDS011;31440;48.584;13.460;2022-09-28T17:13:38;2.58;;;1.60;;
45730;SDS011;31440;48.584;13.460;2022-09-28T17:16:14;4.43;;;2.25;;
45730;SDS011;31440;48.584;13.460;2022-09-28T17:18:46;5.18;;;2.97;;
45730;SDS011;31440;48.584;13.460;2022-09-28T17:21:13;6.03;;;2.63;;
45730;SDS011;31440;48.584;13.460;2022-09-28T17:23:43;5.85;;;2.40;;
45730;SDS011;31440;48.584;13.460;2022-09-28T17:26:22;3.05;;;2.10;;
45730;SDS011;31440;48.584;13.460;2022-09-28T17:28:55;3.47;;;2.20;;
45730;SDS011;31440;48.584;13.460;2022-09-28T17:31:23;4.10;;;2.45;;
45730;SDS011;31440;48.584;13.460;2022-09-28T17:33:50;2.90;;;2.20;;
45730;SDS011;31440;48.584;13.460;2022-09-28T17:36:17;4.10;;;2.13;;
45730;SDS011;31440;48.584;13.460;2022-09-28T17:38:43;5.78;;;2.65;;
45730;SDS011;31440;48.584;13.460;2022-09-28T17:41:10;2.95;;;1.85;;
45730;SDS011;31440;48.584;13.460;2022-09-28T17:43:37;3.58;;;1.40;;
45730;SDS011;31440;48.584;13.460;2022-09-28T17:46:27;2.17;;;1.60;;
45730;SDS011;31440;48.584;13.460;2022-09-28T17:48:56;1.52;;;1.40;;
45730;SDS011;31440;48.584;13.460;2022-09-28T17:51:24;2.13;;;1.85;;
45730;SDS011;31440;48.584;13.460;2022-09-28T17:53:51;3.30;;;2.45;;
45730;SDS011;31440;48.584;13.460;2022-09-28T17:56:18;2.55;;;2.00;;
45730;SDS011;31440;48.584;13.460;2022-09-28T17:58:44;3.65;;;2.33;;
45730;SDS011;31440;48.584;13.460;2022-09-28T18:01:09;2.08;;;1.65;;
45730;SDS011;31440;48.584;13.460;2022-09-28T18:03:35;1.73;;;1.63;;
45730;SDS011;31440;48.584;13.460;2022-09-28T18:08:32;2.10;;;1.90;;
45730;SDS011;31440;48.584;13.460;2022-09-28T18:10:58;2.67;;;2.30;;
45730;SDS011;31440;48.584;13.460;2022-09-28T18:13:26;4.63;;;3.30;;
45730;SDS011;31440;48.584;13.460;2022-09-28T18:15:51;4.65;;;2.30;;
45730;SDS011;31440;48.584;13.460;2022-09-28T18:18:18;6.13;;;2.80;;
45730;SDS011;31440;48.584;13.460;2022-09-28T18:20:44;4.88;;;2.95;;
45730;SDS011;31440;48.584;13.460;2022-09-28T18:23:10;3.78;;;2.92;;
45730;SDS011;31440;48.584;13.460;2022-09-28T18:25:42;3.38;;;2.40;;
45730;SDS011;31440;48.584;13.460;2022-09-28T18:28:08;3.08;;;2.38;;
45730;SDS011;31440;48.584;13.460;2022-09-28T18:30:37;2.97;;;2.65;;
45730;SDS011;31440;48.584;13.460;2022-09-28T18:33:06;2.95;;;2.35;;
45730;SDS011;31440;48.584;13.460;2022-09-28T18:35:32;3.28;;;2.90;;
45730;SDS011;31440;48.584;13.460;2022-09-28T18:37:57;3.28;;;2.60;;
45730;SDS011;31440;48.584;13.460;2022-09-28T18:40:23;6.93;;;3.05;;
45730;SDS011;31440;48.584;13.460;2022-09-28T18:42:49;3.92;;;2.67;;
45730;SDS011;31440;48.584;13.460;2022-09-28T18:45:15;4.78;;;3.22;;
45730;SDS011;31440;48.584;13.460;2022-09-28T18:47:43;5.10;;;3.30;;
45730;SDS011;31440;48.584;13.460;2022-09-28T18:50:09;3.38;;;2.83;;